sensor_id;sensor_type;location;lat;lon;timestamp;pressure;altitude;pressure_sealevel;temperature;humidity
41596;BME280;27283;52.504;13.358;2022-10-16T00:00:53;100758.53;;;16.33;89.60
41596;BME280;27283;52.504;13.358;2022-10-16T00:03:34;100754.78;;;16.34;89.82
41596;BME280;27283;52.504;13.358;2022-10-16T00:06:07;100761.63;;;16.23;90.19
41596;BME280;27283;52.504;13.358;2022-10-16T00:08:40;100764.56;;;16.28;90.06
41596;BME280;27283;52.504;13.358;2022-10-16T00:11:14;100766.97;;;16.58;88.34
41596;BME280;27283;52.504;13.358;2022-10-16T00:13:49;100766.56;;;16.61;87.85
41596;BME280;27283;52.504;13.358;2022-10-16T00:16:49;100766.72;;;16.46;89.09
41596;BME280;27283;52.504;13.358;2022-10-16T00:19:25;100769.88;;;16.63;87.55
41596;BME280;27283;52.504;13.358;2022-10-16T00:21:59;100773.25;;;16.72;87.31
41596;BME280;27283;52.504;13.358;2022-10-16T00:24:32;100770.75;;;16.77;87.65
41596;BME280;27283;52.504;13.358;2022-10-16T00:27:03;100778.22;;;16.61;88.23
41596;BME280;27283;52.504;13.358;2022-10-16T00:29:36;100785.75;;;16.59;87.79
41596;BME280;27283;52.504;13.358;2022-10-16T00:32:10;100783.47;;;16.63;87.86
41596;BME280;27283;52.504;13.358;2022-10-16T00:34:43;100795.13;;;16.50;88.81
41596;BME280;27283;52.504;13.358;2022-10-16T00:37:14;100791.16;;;16.46;89.20
41596;BME280;27283;52.504;13.358;2022-10-16T00:39:47;100786.78;;;16.65;88.50
41596;BME280;27283;52.504;13.358;2022-10-16T00:42:19;100785.94;;;16.51;88.75
41596;BME280;27283;52.504;13.358;2022-10-16T00:44:54;100790.31;;;16.52;88.76
41596;BME280;27283;52.504;13.358;2022-10-16T00:47:32;100783.22;;;16.51;88.78
41596;BME280;27283;52.504;13.358;2022-10-16T00:50:08;100785.13;;;16.71;87.84
41596;BME280;27283;52.504;13.358;2022-10-16T00:52:44;100792.47;;;16.77;87.17
41596;BME280;27283;52.504;13.358;2022-10-16T00:55:18;100789.34;;;16.73;87.29
41596;BME280;27283;52.504;13.358;2022-10-16T00:57:51;100799.75;;;16.63;88.35
41596;BME280;27283;52.504;13.358;2022-10-16T01:00:26;100795.31;;;16.48;89.25
41596;BME280;27283;52.504;13.358;2022-10-16T01:03:02;100810.59;;;16.70;88.02
41596;BME280;27283;52.504;13.358;2022-10-16T01:05:38;100798.94;;;16.69;87.69
41596;BME280;27283;52.504;13.358;2022-10-16T01:08:13;100804.38;;;16.76;87.47
41596;BME280;27283;52.504;13.358;2022-10-16T01:10:55;100799.13;;;16.68;87.96
41596;BME280;27283;52.504;13.358;2022-10-16T01:13:35;100802.22;;;16.51;88.73
41596;BME280;27283;52.504;13.358;2022-10-16T01:16:13;100802.59;;;16.41;89.48
41596;BME280;27283;52.504;13.358;2022-10-16T01:18:53;100809.06;;;16.34;89.71
41596;BME280;27283;52.504;13.358;2022-10-16T01:21:30;100809.75;;;16.56;88.85
41596;BME280;27283;52.504;13.358;2022-10-16T01:24:08;100806.25;;;16.75;87.16
41596;BME280;27283;52.504;13.358;2022-10-16T01:27:11;100814.19;;;16.70;87.02
41596;BME280;27283;52.504;13.358;2022-10-16T01:29:50;100813.09;;;16.58;88.41
41596;BME280;27283;52.504;13.358;2022-10-16T01:32:30;100822.06;;;16.58;88.18
41596;BME280;27283;52.504;13.358;2022-10-16T01:35:09;100819.16;;;16.53;88.88
41596;BME280;27283;52.504;13.358;2022-10-16T01:37:48;100819.72;;;16.48;88.63
41596;BME280;27283;52.504;13.358;2022-10-16T01:40:25;100827.50;;;16.65;87.86
41596;BME280;27283;52.504;13.358;2022-10-16T01:43:06;100825.75;;;16.30;89.79
41596;BME280;27283;52.504;13.358;2022-10-16T01:45:42;100821.22;;;16.51;89.08
41596;BME280;27283;52.504;13.358;2022-10-16T01:48:17;100827.09;;;16.55;88.76
41596;BME280;27283;52.504;13.358;2022-10-16T01:50:55;100830.16;;;16.45;89.43
41596;BME280;27283;52.504;13.358;2022-10-16T01:53:27;100831.59;;;16.41;90.13
41596;BME280;27283;52.504;13.358;2022-10-16T01:56:01;100821.66;;;16.55;89.07
41596;BME280;27283;52.504;13.358;2022-10-16T01:58:41;100835.34;;;16.33;90.05
41596;BME280;27283;52.504;13.358;2022-10-16T02:01:17;100833.13;;;16.50;89.30
41596;BME280;27283;52.504;13.358;2022-10-16T02:03:53;100833.09;;;16.43;89.42
41596;BME280;27283;52.504;13.358;2022-10-16T02:06:25;100839.88;;;16.26;90.40
41596;BME280;27283;52.504;13.358;2022-10-16T02:09:00;100835.41;;;16.46;89.66
41596;BME280;27283;52.504;13.358;2022-10-16T02:11:30;100846.09;;;16.55;89.41
41596;BME280;27283;52.504;13.358;2022-10-16T02:14:06;100850.28;;;16.64;88.69
41596;BME280;27283;52.504;13.358;2022-10-16T02:16:39;100849.00;;;16.60;88.68
41596;BME280;27283;52.504;13.358;2022-10-16T02:19:12;100854.84;;;16.57;88.81
41596;BME280;27283;52.504;13.358;2022-10-16T02:21:50;100866.59;;;16.64;88.28
41596;BME280;27283;52.504;13.358;2022-10-16T02:24:28;100878.28;;;16.64;88.25
41596;BME280;27283;52.504;13.358;2022-10-16T02:27:06;100863.47;;;16.67;87.75
41596;BME280;27283;52.504;13.358;2022-10-16T02:29:46;100858.44;;;16.71;88.34
41596;BME280;27283;52.504;13.358;2022-10-16T02:32:23;100854.44;;;16.53;88.58
41596;BME280;27283;52.504;13.358;2022-10-16T02:34:56;100854.50;;;16.73;87.46
41596;BME280;27283;52.504;13.358;2022-10-16T02:37:30;100855.88;;;16.49;88.93
41596;BME280;27283;52.504;13.358;2022-10-16T02:40:07;100861.56;;;16.61;88.45
41596;BME280;27283;52.504;13.358;2022-10-16T02:42:42;100869.44;;;16.49;88.98
41596;BME280;27283;52.504;13.358;2022-10-16T02:45:16;100857.66;;;16.28;90.39
41596;BME280;27283;52.504;13.358;2022-10-16T02:47:47;100864.63;;;16.51;89.29
41596;BME280;27283;52.504;13.358;2022-10-16T02:50:19;100872.16;;;16.49;88.86
41596;BME280;27283;52.504;13.358;2022-10-16T02:52:49;100866.06;;;16.40;90.00
41596;BME280;27283;52.504;13.358;2022-10-16T02:55:20;100861.25;;;16.42;90.12
41596;BME280;27283;52.504;13.358;2022-10-16T02:57:51;100864.78;;;16.36;89.74
41596;BME280;27283;52.504;13.358;2022-10-16T03:00:25;100868.69;;;16.20;90.86
41596;BME280;27283;52.504;13.358;2022-10-16T03:02:56;100867.09;;;16.39;89.90
41596;BME280;27283;52.504;13.358;2022-10-16T03:05:27;100866.88;;;16.34;89.62
41596;BME280;27283;52.504;13.358;2022-10-16T03:07:57;100856.75;;;16.15;90.98
41596;BME280;27283;52.504;13.358;2022-10-16T03:10:29;100875.22;;;16.33;89.65
41596;BME280;27283;52.504;13.358;2022-10-16T03:13:01;100880.97;;;16.16;90.54
41596;BME280;27283;52.504;13.358;2022-10-16T03:15:35;100885.69;;;16.07;91.41
41596;BME280;27283;52.504;13.358;2022-10-16T03:18:08;100878.47;;;16.21;90.84
41596;BME280;27283;52.504;13.358;2022-10-16T03:20:39;100889.19;;;16.01;92.14
41596;BME280;27283;52.504;13.358;2022-10-16T03:23:09;100891.63;;;15.89;92.45
41596;BME280;27283;52.504;13.358;2022-10-16T03:25:40;100880.84;;;15.74;93.32
41596;BME280;27283;52.504;13.358;2022-10-16T03:28:15;100891.69;;;15.74;93.58
41596;BME280;27283;52.504;13.358;2022-10-16T03:30:48;100884.81;;;15.72;93.99
41596;BME280;27283;52.504;13.358;2022-10-16T03:33:20;100901.13;;;15.79;93.41
41596;BME280;27283;52.504;13.358;2022-10-16T03:35:51;100901.44;;;15.90;92.42
41596;BME280;27283;52.504;13.358;2022-10-16T03:38:23;100897.25;;;15.66;94.29
41596;BME280;27283;52.504;13.358;2022-10-16T03:40:54;100911.00;;;15.65;94.43
41596;BME280;27283;52.504;13.358;2022-10-16T03:43:25;100912.22;;;15.62;94.55
41596;BME280;27283;52.504;13.358;2022-10-16T03:45:59;100908.63;;;15.76;93.88
41596;BME280;27283;52.504;13.358;2022-10-16T03:48:29;100916.63;;;15.63;94.89
41596;BME280;27283;52.504;13.358;2022-10-16T03:51:02;100922.56;;;15.73;94.64
41596;BME280;27283;52.504;13.358;2022-10-16T03:53:33;100932.69;;;15.65;94.60
41596;BME280;27283;52.504;13.358;2022-10-16T03:56:06;100926.56;;;15.56;95.50
41596;BME280;27283;52.504;13.358;2022-10-16T03:58:39;100935.72;;;15.55;95.23
41596;BME280;27283;52.504;13.358;2022-10-16T04:01:13;100945.94;;;15.53;95.61
41596;BME280;27283;52.504;13.358;2022-10-16T04:03:46;100931.97;;;15.56;95.25
41596;BME280;27283;52.504;13.358;2022-10-16T04:06:17;100944.38;;;15.65;94.81
41596;BME280;27283;52.504;13.358;2022-10-16T04:08:49;100948.97;;;15.65;94.85
41596;BME280;27283;52.504;13.358;2022-10-16T04:11:23;100944.94;;;15.60;94.97
41596;BME280;27283;52.504;13.358;2022-10-16T04:13:54;100953.16;;;15.67;95.21
41596;BME280;27283;52.504;13.358;2022-10-16T04:16:28;100953.16;;;15.67;94.86
41596;BME280;27283;52.504;13.358;2022-10-16T04:19:00;100942.13;;;15.69;94.85
41596;BME280;27283;52.504;13.358;2022-10-16T04:21:33;100950.84;;;15.64;94.67
41596;BME280;27283;52.504;13.358;2022-10-16T04:24:04;100943.78;;;15.70;94.41
41596;BME280;27283;52.504;13.358;2022-10-16T04:26:38;100951.22;;;15.61;95.11
41596;BME280;27283;52.504;13.358;2022-10-16T04:29:09;100943.16;;;15.68;94.41
41596;BME280;27283;52.504;13.358;2022-10-16T04:31:43;100932.88;;;15.63;95.47
41596;BME280;27283;52.504;13.358;2022-10-16T04:34:14;100934.03;;;15.75;93.74
41596;BME280;27283;52.504;13.358;2022-10-16T04:36:47;100934.66;;;15.49;95.19
41596;BME280;27283;52.504;13.358;2022-10-16T04:39:18;100931.31;;;15.75;93.35
41596;BME280;27283;52.504;13.358;2022-10-16T04:41:50;100931.16;;;15.55;94.85
41596;BME280;27283;52.504;13.358;2022-10-16T04:44:20;100925.47;;;15.50;94.97
41596;BME280;27283;52.504;13.358;2022-10-16T04:46:55;100929.09;;;15.36;96.16
41596;BME280;27283;52.504;13.358;2022-10-16T04:49:26;100922.97;;;15.27;96.57
41596;BME280;27283;52.504;13.358;2022-10-16T04:51:58;100930.50;;;15.53;95.78
41596;BME280;27283;52.504;13.358;2022-10-16T04:54:29;100923.41;;;15.31;95.67
41596;BME280;27283;52.504;13.358;2022-10-16T04:57:01;100923.91;;;15.19;97.05
41596;BME280;27283;52.504;13.358;2022-10-16T04:59:33;100927.47;;;15.20;96.72
41596;BME280;27283;52.504;13.358;2022-10-16T05:02:07;100937.75;;;15.10;97.06
41596;BME280;27283;52.504;13.358;2022-10-16T05:04:38;100946.34;;;15.13;97.70
41596;BME280;27283;52.504;13.358;2022-10-16T05:07:10;100956.47;;;15.04;97.74
41596;BME280;27283;52.504;13.358;2022-10-16T05:09:41;100961.03;;;15.40;95.04
41596;BME280;27283;52.504;13.358;2022-10-16T05:12:13;100972.34;;;15.29;96.07
41596;BME280;27283;52.504;13.358;2022-10-16T05:14:44;100976.16;;;15.13;97.31
41596;BME280;27283;52.504;13.358;2022-10-16T05:17:19;100964.84;;;15.46;95.20
41596;BME280;27283;52.504;13.358;2022-10-16T05:19:51;100966.69;;;15.24;96.52
41596;BME280;27283;52.504;13.358;2022-10-16T05:22:22;100969.22;;;15.47;95.97
41596;BME280;27283;52.504;13.358;2022-10-16T05:24:52;100966.44;;;15.40;95.90
41596;BME280;27283;52.504;13.358;2022-10-16T05:27:23;100969.00;;;15.49;95.60
41596;BME280;27283;52.504;13.358;2022-10-16T05:29:55;100958.81;;;15.29;97.06
41596;BME280;27283;52.504;13.358;2022-10-16T05:32:28;100958.81;;;15.29;96.90
41596;BME280;27283;52.504;13.358;2022-10-16T05:34:59;100961.59;;;15.36;96.34
41596;BME280;27283;52.504;13.358;2022-10-16T05:37:33;100962.75;;;15.48;95.13
41596;BME280;27283;52.504;13.358;2022-10-16T05:40:05;100973.03;;;15.53;94.20
41596;BME280;27283;52.504;13.358;2022-10-16T05:42:36;100983.09;;;15.37;95.76
41596;BME280;27283;52.504;13.358;2022-10-16T05:45:09;100985.41;;;15.40;95.56
41596;BME280;27283;52.504;13.358;2022-10-16T05:47:43;100992.94;;;15.82;92.46
41596;BME280;27283;52.504;13.358;2022-10-16T05:50:13;100993.16;;;15.65;93.14
41596;BME280;27283;52.504;13.358;2022-10-16T05:52:45;100988.72;;;15.57;93.37
41596;BME280;27283;52.504;13.358;2022-10-16T05:55:15;100985.47;;;15.47;94.59
41596;BME280;27283;52.504;13.358;2022-10-16T05:57:46;100983.72;;;15.39;94.88
41596;BME280;27283;52.504;13.358;2022-10-16T06:00:17;100989.38;;;15.59;93.79
41596;BME280;27283;52.504;13.358;2022-10-16T06:02:51;100977.28;;;15.62;92.79
41596;BME280;27283;52.504;13.358;2022-10-16T06:05:21;100981.28;;;15.45;94.46
41596;BME280;27283;52.504;13.358;2022-10-16T06:07:52;100981.16;;;15.53;93.34
41596;BME280;27283;52.504;13.358;2022-10-16T06:10:25;100992.00;;;15.74;92.38
41596;BME280;27283;52.504;13.358;2022-10-16T06:12:57;100996.38;;;15.75;92.17
41596;BME280;27283;52.504;13.358;2022-10-16T06:15:33;100995.56;;;15.75;92.38
41596;BME280;27283;52.504;13.358;2022-10-16T06:18:07;101000.44;;;15.80;92.10
41596;BME280;27283;52.504;13.358;2022-10-16T06:20:38;101007.34;;;16.10;90.20
41596;BME280;27283;52.504;13.358;2022-10-16T06:23:09;101012.47;;;15.99;90.54
41596;BME280;27283;52.504;13.358;2022-10-16T06:25:40;100996.66;;;16.02;90.04
41596;BME280;27283;52.504;13.358;2022-10-16T06:28:13;101006.03;;;15.78;91.67
41596;BME280;27283;52.504;13.358;2022-10-16T06:30:44;101016.69;;;16.01;90.74
41596;BME280;27283;52.504;13.358;2022-10-16T06:33:18;101020.53;;;16.13;90.30
41596;BME280;27283;52.504;13.358;2022-10-16T06:35:49;101018.59;;;16.29;89.07
41596;BME280;27283;52.504;13.358;2022-10-16T06:38:20;101021.03;;;16.24;88.83
41596;BME280;27283;52.504;13.358;2022-10-16T06:40:53;101034.03;;;16.07;89.92
41596;BME280;27283;52.504;13.358;2022-10-16T06:43:24;101035.72;;;16.64;86.93
41596;BME280;27283;52.504;13.358;2022-10-16T06:45:56;101041.94;;;16.58;87.57
41596;BME280;27283;52.504;13.358;2022-10-16T06:48:30;101047.09;;;16.81;86.31
41596;BME280;27283;52.504;13.358;2022-10-16T06:51:03;101048.06;;;16.67;86.67
41596;BME280;27283;52.504;13.358;2022-10-16T06:53:39;101042.88;;;16.44;87.61
41596;BME280;27283;52.504;13.358;2022-10-16T06:56:31;101043.25;;;16.34;89.06
41596;BME280;27283;52.504;13.358;2022-10-16T06:59:03;101046.78;;;16.63;87.01
41596;BME280;27283;52.504;13.358;2022-10-16T07:01:34;101048.69;;;16.62;87.57
41596;BME280;27283;52.504;13.358;2022-10-16T07:04:08;101054.34;;;16.68;87.43
41596;BME280;27283;52.504;13.358;2022-10-16T07:06:39;101059.44;;;16.77;86.97
41596;BME280;27283;52.504;13.358;2022-10-16T07:09:11;101061.28;;;17.05;85.76
41596;BME280;27283;52.504;13.358;2022-10-16T07:11:43;101074.84;;;17.47;83.95
41596;BME280;27283;52.504;13.358;2022-10-16T07:14:16;101082.03;;;17.81;82.66
41596;BME280;27283;52.504;13.358;2022-10-16T07:16:48;101073.66;;;17.69;83.08
41596;BME280;27283;52.504;13.358;2022-10-16T07:19:23;101087.25;;;17.76;81.47
41596;BME280;27283;52.504;13.358;2022-10-16T07:21:59;101073.03;;;17.81;81.40
41596;BME280;27283;52.504;13.358;2022-10-16T07:24:31;101075.13;;;17.79;81.15
41596;BME280;27283;52.504;13.358;2022-10-16T07:27:01;101073.09;;;17.94;80.66
41596;BME280;27283;52.504;13.358;2022-10-16T07:29:33;101082.44;;;17.78;81.15
41596;BME280;27283;52.504;13.358;2022-10-16T07:32:04;101076.06;;;18.19;79.43
41596;BME280;27283;52.504;13.358;2022-10-16T07:34:38;101065.78;;;18.08;79.23
41596;BME280;27283;52.504;13.358;2022-10-16T07:37:09;101069.09;;;17.83;80.18
41596;BME280;27283;52.504;13.358;2022-10-16T07:39:41;101077.72;;;18.07;79.53
41596;BME280;27283;52.504;13.358;2022-10-16T07:42:11;101080.44;;;18.20;78.82
41596;BME280;27283;52.504;13.358;2022-10-16T07:44:42;101087.97;;;18.25;78.27
41596;BME280;27283;52.504;13.358;2022-10-16T07:47:13;101092.19;;;18.68;77.99
41596;BME280;27283;52.504;13.358;2022-10-16T07:49:47;101077.97;;;18.26;78.97
41596;BME280;27283;52.504;13.358;2022-10-16T07:52:18;101080.03;;;18.23;78.94
41596;BME280;27283;52.504;13.358;2022-10-16T07:54:49;101089.69;;;18.53;78.42
41596;BME280;27283;52.504;13.358;2022-10-16T07:57:19;101086.75;;;18.34;78.15
41596;BME280;27283;52.504;13.358;2022-10-16T07:59:51;101082.53;;;18.25;78.79
41596;BME280;27283;52.504;13.358;2022-10-16T08:02:22;101094.50;;;18.37;77.97
41596;BME280;27283;52.504;13.358;2022-10-16T08:04:56;101106.00;;;18.46;78.34
41596;BME280;27283;52.504;13.358;2022-10-16T08:07:26;101109.34;;;18.55;78.01
41596;BME280;27283;52.504;13.358;2022-10-16T08:09:57;101114.38;;;18.65;78.14
41596;BME280;27283;52.504;13.358;2022-10-16T08:12:28;101121.47;;;18.99;77.30
41596;BME280;27283;52.504;13.358;2022-10-16T08:15:01;101130.44;;;19.20;76.96
41596;BME280;27283;52.504;13.358;2022-10-16T08:17:31;101123.81;;;18.95;75.94
41596;BME280;27283;52.504;13.358;2022-10-16T08:20:06;101121.91;;;18.83;76.86
41596;BME280;27283;52.504;13.358;2022-10-16T08:22:37;101120.66;;;18.78;77.18
41596;BME280;27283;52.504;13.358;2022-10-16T08:25:09;101125.88;;;19.00;76.06
41596;BME280;27283;52.504;13.358;2022-10-16T08:27:39;101120.69;;;18.92;76.27
41596;BME280;27283;52.504;13.358;2022-10-16T08:30:11;101124.63;;;18.96;75.31
41596;BME280;27283;52.504;13.358;2022-10-16T08:32:42;101126.88;;;19.26;75.93
41596;BME280;27283;52.504;13.358;2022-10-16T08:35:16;101126.47;;;19.22;75.34
41596;BME280;27283;52.504;13.358;2022-10-16T08:37:47;101131.41;;;19.45;74.69
41596;BME280;27283;52.504;13.358;2022-10-16T08:40:19;101125.53;;;19.48;75.25
41596;BME280;27283;52.504;13.358;2022-10-16T08:43:11;101127.16;;;19.63;74.56
41596;BME280;27283;52.504;13.358;2022-10-16T08:46:01;101122.09;;;19.66;73.20
41596;BME280;27283;52.504;13.358;2022-10-16T08:48:41;101120.31;;;19.92;73.32
41596;BME280;27283;52.504;13.358;2022-10-16T08:51:20;101120.53;;;19.91;72.61
41596;BME280;27283;52.504;13.358;2022-10-16T08:53:54;101126.16;;;19.51;74.87
41596;BME280;27283;52.504;13.358;2022-10-16T08:56:27;101123.78;;;19.68;72.50
41596;BME280;27283;52.504;13.358;2022-10-16T08:58:58;101144.25;;;19.90;72.31
41596;BME280;27283;52.504;13.358;2022-10-16T09:01:38;101142.63;;;19.82;73.91
41596;BME280;27283;52.504;13.358;2022-10-16T09:04:44;101138.78;;;19.45;74.06
41596;BME280;27283;52.504;13.358;2022-10-16T09:07:32;101157.66;;;19.46;74.47
41596;BME280;27283;52.504;13.358;2022-10-16T09:10:21;101154.81;;;19.73;75.00
41596;BME280;27283;52.504;13.358;2022-10-16T09:13:02;101161.72;;;20.21;71.28
41596;BME280;27283;52.504;13.358;2022-10-16T09:15:43;101170.63;;;20.42;70.07
41596;BME280;27283;52.504;13.358;2022-10-16T09:18:21;101164.75;;;20.70;70.76
41596;BME280;27283;52.504;13.358;2022-10-16T09:21:06;101158.47;;;20.63;69.30
41596;BME280;27283;52.504;13.358;2022-10-16T09:23:45;101159.88;;;20.97;69.91
41596;BME280;27283;52.504;13.358;2022-10-16T09:26:18;101159.66;;;20.74;68.41
41596;BME280;27283;52.504;13.358;2022-10-16T09:28:52;101159.75;;;21.11;68.35
41596;BME280;27283;52.504;13.358;2022-10-16T09:31:23;101156.34;;;21.52;66.89
41596;BME280;27283;52.504;13.358;2022-10-16T09:33:58;101154.00;;;22.05;64.20
41596;BME280;27283;52.504;13.358;2022-10-16T09:36:39;101165.63;;;22.30;62.33
41596;BME280;27283;52.504;13.358;2022-10-16T09:39:14;101166.13;;;21.97;63.24
41596;BME280;27283;52.504;13.358;2022-10-16T09:41:45;101170.94;;;21.46;63.99
41596;BME280;27283;52.504;13.358;2022-10-16T09:44:22;101175.44;;;22.08;63.02
41596;BME280;27283;52.504;13.358;2022-10-16T09:47:02;101178.41;;;23.14;59.74
41596;BME280;27283;52.504;13.358;2022-10-16T09:49:34;101187.09;;;22.99;59.45
41596;BME280;27283;52.504;13.358;2022-10-16T09:52:11;101193.41;;;23.00;59.72
41596;BME280;27283;52.504;13.358;2022-10-16T09:54:52;101187.88;;;22.76;59.73
41596;BME280;27283;52.504;13.358;2022-10-16T09:57:24;101194.22;;;22.65;60.59
41596;BME280;27283;52.504;13.358;2022-10-16T09:59:58;101188.81;;;22.46;60.67
41596;BME280;27283;52.504;13.358;2022-10-16T10:02:31;101192.94;;;23.03;58.94
41596;BME280;27283;52.504;13.358;2022-10-16T10:05:17;101195.03;;;23.72;55.58
41596;BME280;27283;52.504;13.358;2022-10-16T10:07:54;101198.31;;;24.44;53.71
41596;BME280;27283;52.504;13.358;2022-10-16T10:10:32;101207.06;;;23.71;55.16
41596;BME280;27283;52.504;13.358;2022-10-16T10:13:04;101211.94;;;22.62;57.35
41596;BME280;27283;52.504;13.358;2022-10-16T10:15:41;101206.28;;;21.85;60.88
41596;BME280;27283;52.504;13.358;2022-10-16T10:18:17;101206.06;;;21.05;63.51
41596;BME280;27283;52.504;13.358;2022-10-16T10:20:57;101211.19;;;21.39;63.80
41596;BME280;27283;52.504;13.358;2022-10-16T10:23:29;101212.44;;;21.62;63.05
41596;BME280;27283;52.504;13.358;2022-10-16T10:26:06;101205.50;;;21.96;61.25
41596;BME280;27283;52.504;13.358;2022-10-16T10:28:50;101211.06;;;21.71;62.10
41596;BME280;27283;52.504;13.358;2022-10-16T10:31:32;101211.69;;;21.73;62.24
41596;BME280;27283;52.504;13.358;2022-10-16T10:34:23;101224.00;;;21.64;62.77
41596;BME280;27283;52.504;13.358;2022-10-16T10:37:04;101228.22;;;20.97;63.00
41596;BME280;27283;52.504;13.358;2022-10-16T10:39:46;101236.25;;;21.17;63.71
41596;BME280;27283;52.504;13.358;2022-10-16T10:42:27;101232.16;;;21.45;61.22
41596;BME280;27283;52.504;13.358;2022-10-16T10:45:17;101236.31;;;21.54;61.05
41596;BME280;27283;52.504;13.358;2022-10-16T10:48:03;101237.38;;;21.53;59.78
41596;BME280;27283;52.504;13.358;2022-10-16T10:50:42;101223.69;;;21.90;59.35
41596;BME280;27283;52.504;13.358;2022-10-16T10:53:25;101224.19;;;22.48;59.24
41596;BME280;27283;52.504;13.358;2022-10-16T10:56:14;101237.16;;;22.41;56.03
41596;BME280;27283;52.504;13.358;2022-10-16T10:59:14;101227.19;;;22.28;58.16
41596;BME280;27283;52.504;13.358;2022-10-16T11:01:56;101229.91;;;22.28;57.00
41596;BME280;27283;52.504;13.358;2022-10-16T11:04:49;101228.22;;;22.99;55.16
41596;BME280;27283;52.504;13.358;2022-10-16T11:07:27;101222.56;;;23.77;52.05
41596;BME280;27283;52.504;13.358;2022-10-16T11:10:05;101225.25;;;24.13;50.90
41596;BME280;27283;52.504;13.358;2022-10-16T11:12:43;101243.03;;;23.58;52.88
41596;BME280;27283;52.504;13.358;2022-10-16T11:15:23;101231.50;;;23.96;53.88
41596;BME280;27283;52.504;13.358;2022-10-16T11:18:01;101240.75;;;22.53;54.99
41596;BME280;27283;52.504;13.358;2022-10-16T11:20:41;101234.75;;;22.14;57.82
41596;BME280;27283;52.504;13.358;2022-10-16T11:23:17;101223.59;;;22.46;57.81
41596;BME280;27283;52.504;13.358;2022-10-16T11:25:55;101229.41;;;22.92;55.20
41596;BME280;27283;52.504;13.358;2022-10-16T11:28:31;101224.78;;;23.04;54.91
41596;BME280;27283;52.504;13.358;2022-10-16T11:31:11;101231.66;;;23.07;55.84
41596;BME280;27283;52.504;13.358;2022-10-16T11:33:49;101229.34;;;23.10;52.73
41596;BME280;27283;52.504;13.358;2022-10-16T11:36:27;101227.19;;;23.24;51.96
41596;BME280;27283;52.504;13.358;2022-10-16T11:39:08;101229.81;;;23.19;51.49
41596;BME280;27283;52.504;13.358;2022-10-16T11:41:46;101238.28;;;22.03;54.13
41596;BME280;27283;52.504;13.358;2022-10-16T11:44:39;101220.81;;;22.16;53.18
41596;BME280;27283;52.504;13.358;2022-10-16T11:47:30;101232.38;;;22.36;52.82
41596;BME280;27283;52.504;13.358;2022-10-16T11:50:29;101228.34;;;22.51;53.21
41596;BME280;27283;52.504;13.358;2022-10-16T11:53:11;101237.47;;;22.33;52.81
41596;BME280;27283;52.504;13.358;2022-10-16T11:55:45;101242.88;;;22.39;52.45
41596;BME280;27283;52.504;13.358;2022-10-16T11:58:25;101237.38;;;22.21;51.72
41596;BME280;27283;52.504;13.358;2022-10-16T12:01:04;101238.50;;;21.83;53.42
41596;BME280;27283;52.504;13.358;2022-10-16T12:03:46;101244.53;;;21.73;54.33
41596;BME280;27283;52.504;13.358;2022-10-16T12:06:31;101249.59;;;21.51;53.19
41596;BME280;27283;52.504;13.358;2022-10-16T12:09:14;101247.28;;;21.54;53.59
41596;BME280;27283;52.504;13.358;2022-10-16T12:11:46;101254.91;;;21.46;54.45
41596;BME280;27283;52.504;13.358;2022-10-16T12:14:35;101260.66;;;21.37;52.98
41596;BME280;27283;52.504;13.358;2022-10-16T12:17:35;101272.31;;;21.08;54.15
41596;BME280;27283;52.504;13.358;2022-10-16T12:20:27;101263.84;;;21.34;52.99
41596;BME280;27283;52.504;13.358;2022-10-16T12:23:02;101258.78;;;21.13;53.28
41596;BME280;27283;52.504;13.358;2022-10-16T12:25:36;101269.28;;;21.16;54.43
41596;BME280;27283;52.504;13.358;2022-10-16T12:28:20;101270.88;;;20.98;53.78
41596;BME280;27283;52.504;13.358;2022-10-16T12:30:54;101274.06;;;20.95;55.45
41596;BME280;27283;52.504;13.358;2022-10-16T12:33:28;101273.63;;;21.23;53.49
41596;BME280;27283;52.504;13.358;2022-10-16T12:36:06;101269.25;;;20.91;53.84
41596;BME280;27283;52.504;13.358;2022-10-16T12:38:46;101270.88;;;20.73;53.24
41596;BME280;27283;52.504;13.358;2022-10-16T12:41:25;101278.09;;;20.93;53.16
41596;BME280;27283;52.504;13.358;2022-10-16T12:43:58;101278.59;;;21.08;53.93
41596;BME280;27283;52.504;13.358;2022-10-16T12:46:38;101271.47;;;20.75;53.28
41596;BME280;27283;52.504;13.358;2022-10-16T12:49:31;101283.16;;;20.89;54.43
41596;BME280;27283;52.504;13.358;2022-10-16T12:52:28;101288.91;;;20.81;52.84
41596;BME280;27283;52.504;13.358;2022-10-16T12:55:00;101290.22;;;20.65;54.16
41596;BME280;27283;52.504;13.358;2022-10-16T12:57:42;101297.19;;;20.67;53.98
41596;BME280;27283;52.504;13.358;2022-10-16T13:00:24;101285.41;;;20.60;53.67
41596;BME280;27283;52.504;13.358;2022-10-16T13:06:10;101300.22;;;20.46;53.44
41596;BME280;27283;52.504;13.358;2022-10-16T13:12:13;101297.16;;;20.61;52.01
41596;BME280;27283;52.504;13.358;2022-10-16T13:15:09;101303.94;;;20.58;52.25
41596;BME280;27283;52.504;13.358;2022-10-16T13:17:52;101299.81;;;20.42;52.90
41596;BME280;27283;52.504;13.358;2022-10-16T13:20:31;101312.50;;;20.62;52.98
41596;BME280;27283;52.504;13.358;2022-10-16T13:23:13;101320.50;;;20.63;51.25
41596;BME280;27283;52.504;13.358;2022-10-16T13:26:01;101317.59;;;20.58;52.73
41596;BME280;27283;52.504;13.358;2022-10-16T13:28:38;101327.44;;;20.59;53.47
41596;BME280;27283;52.504;13.358;2022-10-16T13:31:15;101324.72;;;20.59;52.52